sensor_id;sensor_type;location;lat;lon;timestamp;P1;durP1;ratioP1;P2;durP2;ratioP2
75367;SDS011;63954;51.948;5.888;2022-11-04T00:02:03;11.77;;;4.78;;
75367;SDS011;63954;51.948;5.888;2022-11-04T00:04:30;9.30;;;5.25;;
75367;SDS011;63954;51.948;5.888;2022-11-04T00:06:57;11.00;;;6.45;;
75367;SDS011;63954;51.948;5.888;2022-11-04T00:09:25;12.00;;;6.78;;
75367;SDS011;63954;51.948;5.888;2022-11-04T00:11:53;14.43;;;8.73;;
75367;SDS011;63954;51.948;5.888;2022-11-04T00:14:40;12.75;;;7.22;;
75367;SDS011;63954;51.948;5.888;2022-11-04T00:17:08;15.38;;;7.97;;
75367;SDS011;63954;51.948;5.888;2022-11-04T00:19:44;16.25;;;8.35;;
75367;SDS011;63954;51.948;5.888;2022-11-04T00:22:30;15.48;;;9.18;;
75367;SDS011;63954;51.948;5.888;2022-11-04T00:25:14;16.38;;;9.05;;
75367;SDS011;63954;51.948;5.888;2022-11-04T00:28:03;16.45;;;8.82;;
75367;SDS011;63954;51.948;5.888;2022-11-04T00:30:54;19.05;;;12.07;;
75367;SDS011;63954;51.948;5.888;2022-11-04T00:33:22;20.55;;;10.93;;
75367;SDS011;63954;51.948;5.888;2022-11-04T00:35:51;21.08;;;12.65;;
75367;SDS011;63954;51.948;5.888;2022-11-04T00:38:20;22.15;;;12.80;;
75367;SDS011;63954;51.948;5.888;2022-11-04T00:40:48;16.63;;;10.68;;
75367;SDS011;63954;51.948;5.888;2022-11-04T00:43:15;14.02;;;7.93;;
75367;SDS011;63954;51.948;5.888;2022-11-04T00:45:43;14.70;;;8.88;;
75367;SDS011;63954;51.948;5.888;2022-11-04T00:48:11;13.73;;;7.85;;
75367;SDS011;63954;51.948;5.888;2022-11-04T00:50:38;10.38;;;5.07;;
75367;SDS011;63954;51.948;5.888;2022-11-04T00:53:05;8.80;;;5.55;;
75367;SDS011;63954;51.948;5.888;2022-11-04T00:55:33;7.88;;;5.47;;
75367;SDS011;63954;51.948;5.888;2022-11-04T00:58:00;7.90;;;3.55;;
75367;SDS011;63954;51.948;5.888;2022-11-04T01:00:28;7.32;;;4.70;;
75367;SDS011;63954;51.948;5.888;2022-11-04T01:02:55;5.53;;;2.75;;
75367;SDS011;63954;51.948;5.888;2022-11-04T01:05:26;5.43;;;2.05;;
75367;SDS011;63954;51.948;5.888;2022-11-04T01:07:53;5.72;;;2.58;;
75367;SDS011;63954;51.948;5.888;2022-11-04T01:10:20;4.55;;;2.58;;
75367;SDS011;63954;51.948;5.888;2022-11-04T01:12:47;4.90;;;2.22;;
75367;SDS011;63954;51.948;5.888;2022-11-04T01:15:17;5.22;;;2.25;;
75367;SDS011;63954;51.948;5.888;2022-11-04T01:17:44;5.32;;;2.53;;
75367;SDS011;63954;51.948;5.888;2022-11-04T01:20:11;5.88;;;2.70;;
75367;SDS011;63954;51.948;5.888;2022-11-04T01:22:40;5.65;;;1.80;;
75367;SDS011;63954;51.948;5.888;2022-11-04T01:25:07;4.90;;;1.50;;
75367;SDS011;63954;51.948;5.888;2022-11-04T01:27:35;4.10;;;0.90;;
75367;SDS011;63954;51.948;5.888;2022-11-04T01:30:03;6.72;;;2.08;;
75367;SDS011;63954;51.948;5.888;2022-11-04T01:32:31;6.15;;;2.72;;
75367;SDS011;63954;51.948;5.888;2022-11-04T01:34:58;5.18;;;1.98;;
75367;SDS011;63954;51.948;5.888;2022-11-04T01:37:25;6.85;;;2.28;;
75367;SDS011;63954;51.948;5.888;2022-11-04T01:39:54;5.45;;;2.25;;
75367;SDS011;63954;51.948;5.888;2022-11-04T01:42:21;7.22;;;2.90;;
75367;SDS011;63954;51.948;5.888;2022-11-04T01:44:53;5.55;;;2.42;;
75367;SDS011;63954;51.948;5.888;2022-11-04T01:47:23;7.25;;;2.97;;
75367;SDS011;63954;51.948;5.888;2022-11-04T01:49:55;9.05;;;3.85;;
75367;SDS011;63954;51.948;5.888;2022-11-04T01:52:27;8.73;;;3.78;;
75367;SDS011;63954;51.948;5.888;2022-11-04T01:55:02;12.38;;;6.43;;
75367;SDS011;63954;51.948;5.888;2022-11-04T01:57:33;10.63;;;5.55;;
75367;SDS011;63954;51.948;5.888;2022-11-04T02:00:04;14.95;;;8.93;;
75367;SDS011;63954;51.948;5.888;2022-11-04T02:02:43;15.25;;;9.05;;
75367;SDS011;63954;51.948;5.888;2022-11-04T02:05:16;15.90;;;9.30;;
75367;SDS011;63954;51.948;5.888;2022-11-04T02:07:45;19.38;;;12.23;;
75367;SDS011;63954;51.948;5.888;2022-11-04T02:10:16;21.65;;;12.00;;
75367;SDS011;63954;51.948;5.888;2022-11-04T02:12:46;18.58;;;10.98;;
75367;SDS011;63954;51.948;5.888;2022-11-04T02:15:16;18.00;;;10.52;;
75367;SDS011;63954;51.948;5.888;2022-11-04T02:17:53;20.90;;;12.57;;
75367;SDS011;63954;51.948;5.888;2022-11-04T02:20:47;18.50;;;11.15;;
75367;SDS011;63954;51.948;5.888;2022-11-04T02:26:43;19.70;;;12.02;;
75367;SDS011;63954;51.948;5.888;2022-11-04T02:32:33;21.85;;;11.95;;
75367;SDS011;63954;51.948;5.888;2022-11-04T02:35:09;24.55;;;13.85;;
75367;SDS011;63954;51.948;5.888;2022-11-04T02:37:44;20.58;;;11.85;;
75367;SDS011;63954;51.948;5.888;2022-11-04T02:40:21;18.13;;;12.10;;
75367;SDS011;63954;51.948;5.888;2022-11-04T02:42:57;20.92;;;13.05;;
75367;SDS011;63954;51.948;5.888;2022-11-04T02:45:32;20.67;;;13.43;;
75367;SDS011;63954;51.948;5.888;2022-11-04T02:48:04;23.48;;;15.13;;
75367;SDS011;63954;51.948;5.888;2022-11-04T02:50:37;22.70;;;14.00;;
75367;SDS011;63954;51.948;5.888;2022-11-04T02:53:09;23.63;;;14.20;;
75367;SDS011;63954;51.948;5.888;2022-11-04T02:55:41;16.58;;;8.90;;
75367;SDS011;63954;51.948;5.888;2022-11-04T02:58:12;23.40;;;14.20;;
75367;SDS011;63954;51.948;5.888;2022-11-04T03:00:43;21.60;;;14.35;;
75367;SDS011;63954;51.948;5.888;2022-11-04T03:03:15;25.30;;;16.13;;
75367;SDS011;63954;51.948;5.888;2022-11-04T03:05:46;19.92;;;12.63;;
75367;SDS011;63954;51.948;5.888;2022-11-04T03:08:17;23.80;;;14.57;;
75367;SDS011;63954;51.948;5.888;2022-11-04T03:10:48;23.67;;;14.15;;
75367;SDS011;63954;51.948;5.888;2022-11-04T03:13:19;23.73;;;14.55;;
75367;SDS011;63954;51.948;5.888;2022-11-04T03:15:50;21.33;;;11.35;;
75367;SDS011;63954;51.948;5.888;2022-11-04T03:18:31;21.20;;;12.70;;
75367;SDS011;63954;51.948;5.888;2022-11-04T03:21:03;20.55;;;12.88;;
75367;SDS011;63954;51.948;5.888;2022-11-04T03:23:34;19.45;;;12.60;;
75367;SDS011;63954;51.948;5.888;2022-11-04T03:26:06;20.23;;;13.73;;
75367;SDS011;63954;51.948;5.888;2022-11-04T03:28:38;20.05;;;11.82;;
75367;SDS011;63954;51.948;5.888;2022-11-04T03:31:20;21.95;;;12.15;;
75367;SDS011;63954;51.948;5.888;2022-11-04T03:33:51;19.40;;;10.65;;
75367;SDS011;63954;51.948;5.888;2022-11-04T03:36:21;19.52;;;12.13;;
75367;SDS011;63954;51.948;5.888;2022-11-04T03:38:49;22.65;;;12.88;;
75367;SDS011;63954;51.948;5.888;2022-11-04T03:41:18;20.83;;;11.63;;
75367;SDS011;63954;51.948;5.888;2022-11-04T03:43:51;20.75;;;10.80;;
75367;SDS011;63954;51.948;5.888;2022-11-04T03:46:19;19.50;;;11.02;;
75367;SDS011;63954;51.948;5.888;2022-11-04T03:48:47;19.40;;;12.20;;
75367;SDS011;63954;51.948;5.888;2022-11-04T03:51:17;21.00;;;11.93;;
75367;SDS011;63954;51.948;5.888;2022-11-04T03:53:44;29.95;;;11.88;;
75367;SDS011;63954;51.948;5.888;2022-11-04T03:56:19;16.98;;;7.90;;
75367;SDS011;63954;51.948;5.888;2022-11-04T03:59:10;22.20;;;12.93;;
75367;SDS011;63954;51.948;5.888;2022-11-04T04:01:51;15.93;;;8.32;;
75367;SDS011;63954;51.948;5.888;2022-11-04T04:04:23;14.43;;;8.38;;
75367;SDS011;63954;51.948;5.888;2022-11-04T04:06:56;17.10;;;9.70;;
75367;SDS011;63954;51.948;5.888;2022-11-04T04:09:29;14.50;;;6.63;;
75367;SDS011;63954;51.948;5.888;2022-11-04T04:12:04;13.82;;;7.57;;
75367;SDS011;63954;51.948;5.888;2022-11-04T04:14:37;15.05;;;7.13;;
75367;SDS011;63954;51.948;5.888;2022-11-04T04:17:12;16.20;;;8.57;;
75367;SDS011;63954;51.948;5.888;2022-11-04T04:19:44;11.95;;;5.55;;
75367;SDS011;63954;51.948;5.888;2022-11-04T04:22:16;18.08;;;9.70;;
75367;SDS011;63954;51.948;5.888;2022-11-04T04:24:46;13.63;;;8.50;;
75367;SDS011;63954;51.948;5.888;2022-11-04T04:27:32;11.90;;;6.57;;
75367;SDS011;63954;51.948;5.888;2022-11-04T04:30:02;11.18;;;6.45;;
75367;SDS011;63954;51.948;5.888;2022-11-04T04:32:35;13.63;;;7.45;;
75367;SDS011;63954;51.948;5.888;2022-11-04T04:35:05;9.82;;;4.88;;
75367;SDS011;63954;51.948;5.888;2022-11-04T04:37:51;8.20;;;3.30;;
75367;SDS011;63954;51.948;5.888;2022-11-04T04:43:12;8.10;;;3.45;;
75367;SDS011;63954;51.948;5.888;2022-11-04T04:46:17;8.93;;;3.30;;
75367;SDS011;63954;51.948;5.888;2022-11-04T04:48:46;8.95;;;3.10;;
75367;SDS011;63954;51.948;5.888;2022-11-04T04:51:13;6.95;;;3.47;;
75367;SDS011;63954;51.948;5.888;2022-11-04T04:53:40;7.32;;;3.15;;
75367;SDS011;63954;51.948;5.888;2022-11-04T04:56:07;9.90;;;3.45;;
75367;SDS011;63954;51.948;5.888;2022-11-04T04:58:35;6.97;;;3.25;;
75367;SDS011;63954;51.948;5.888;2022-11-04T05:01:02;12.40;;;4.43;;
75367;SDS011;63954;51.948;5.888;2022-11-04T05:03:29;14.32;;;6.18;;
75367;SDS011;63954;51.948;5.888;2022-11-04T05:05:59;9.65;;;4.03;;
75367;SDS011;63954;51.948;5.888;2022-11-04T05:08:26;9.05;;;4.22;;
75367;SDS011;63954;51.948;5.888;2022-11-04T05:10:53;8.73;;;4.25;;
75367;SDS011;63954;51.948;5.888;2022-11-04T05:13:20;11.75;;;6.40;;
75367;SDS011;63954;51.948;5.888;2022-11-04T05:15:54;8.60;;;3.55;;
75367;SDS011;63954;51.948;5.888;2022-11-04T05:18:22;8.73;;;4.50;;
75367;SDS011;63954;51.948;5.888;2022-11-04T05:20:50;11.20;;;4.68;;
75367;SDS011;63954;51.948;5.888;2022-11-04T05:23:19;9.40;;;3.88;;
75367;SDS011;63954;51.948;5.888;2022-11-04T05:25:46;9.20;;;3.10;;
75367;SDS011;63954;51.948;5.888;2022-11-04T05:28:13;7.18;;;2.88;;
75367;SDS011;63954;51.948;5.888;2022-11-04T05:30:40;9.32;;;3.80;;
75367;SDS011;63954;51.948;5.888;2022-11-04T05:33:08;8.20;;;3.17;;
75367;SDS011;63954;51.948;5.888;2022-11-04T05:35:35;7.40;;;5.25;;
75367;SDS011;63954;51.948;5.888;2022-11-04T05:38:03;9.95;;;4.43;;
75367;SDS011;63954;51.948;5.888;2022-11-04T05:40:31;10.95;;;5.00;;
75367;SDS011;63954;51.948;5.888;2022-11-04T05:42:59;9.43;;;3.17;;
75367;SDS011;63954;51.948;5.888;2022-11-04T05:45:26;8.07;;;3.85;;
75367;SDS011;63954;51.948;5.888;2022-11-04T05:47:57;9.25;;;2.97;;
75367;SDS011;63954;51.948;5.888;2022-11-04T05:50:25;6.57;;;2.30;;
75367;SDS011;63954;51.948;5.888;2022-11-04T05:52:52;4.53;;;1.45;;
75367;SDS011;63954;51.948;5.888;2022-11-04T05:55:22;10.05;;;4.57;;
75367;SDS011;63954;51.948;5.888;2022-11-04T05:57:51;9.55;;;4.68;;
75367;SDS011;63954;51.948;5.888;2022-11-04T06:00:18;8.63;;;2.13;;
75367;SDS011;63954;51.948;5.888;2022-11-04T06:02:45;9.30;;;2.92;;
75367;SDS011;63954;51.948;5.888;2022-11-04T06:05:13;7.40;;;3.05;;
75367;SDS011;63954;51.948;5.888;2022-11-04T06:07:40;8.38;;;3.47;;
75367;SDS011;63954;51.948;5.888;2022-11-04T06:10:07;5.90;;;3.28;;
75367;SDS011;63954;51.948;5.888;2022-11-04T06:12:35;5.53;;;1.38;;
75367;SDS011;63954;51.948;5.888;2022-11-04T06:15:04;7.25;;;1.90;;
75367;SDS011;63954;51.948;5.888;2022-11-04T06:17:32;10.18;;;3.85;;
75367;SDS011;63954;51.948;5.888;2022-11-04T06:19:59;5.40;;;2.85;;
75367;SDS011;63954;51.948;5.888;2022-11-04T06:22:27;10.23;;;3.58;;
75367;SDS011;63954;51.948;5.888;2022-11-04T06:24:54;7.22;;;1.95;;
75367;SDS011;63954;51.948;5.888;2022-11-04T06:27:21;7.78;;;2.80;;
75367;SDS011;63954;51.948;5.888;2022-11-04T06:29:48;4.60;;;1.10;;
75367;SDS011;63954;51.948;5.888;2022-11-04T06:32:18;6.15;;;1.95;;
75367;SDS011;63954;51.948;5.888;2022-11-04T06:34:46;8.23;;;4.10;;
75367;SDS011;63954;51.948;5.888;2022-11-04T06:37:13;5.60;;;2.60;;
75367;SDS011;63954;51.948;5.888;2022-11-04T06:39:40;6.05;;;1.60;;
75367;SDS011;63954;51.948;5.888;2022-11-04T06:42:07;5.20;;;1.38;;
75367;SDS011;63954;51.948;5.888;2022-11-04T06:44:34;6.70;;;1.98;;
75367;SDS011;63954;51.948;5.888;2022-11-04T06:47:02;6.85;;;2.20;;
75367;SDS011;63954;51.948;5.888;2022-11-04T06:49:31;5.00;;;1.95;;
75367;SDS011;63954;51.948;5.888;2022-11-04T06:51:58;12.95;;;3.53;;
75367;SDS011;63954;51.948;5.888;2022-11-04T06:54:27;9.60;;;2.47;;
75367;SDS011;63954;51.948;5.888;2022-11-04T06:56:54;5.78;;;2.30;;
75367;SDS011;63954;51.948;5.888;2022-11-04T06:59:21;7.57;;;2.95;;
75367;SDS011;63954;51.948;5.888;2022-11-04T07:01:49;6.18;;;2.22;;
75367;SDS011;63954;51.948;5.888;2022-11-04T07:04:17;7.30;;;2.88;;
75367;SDS011;63954;51.948;5.888;2022-11-04T07:06:45;6.35;;;1.98;;
75367;SDS011;63954;51.948;5.888;2022-11-04T07:09:13;9.80;;;3.42;;
75367;SDS011;63954;51.948;5.888;2022-11-04T07:11:41;7.78;;;2.78;;
75367;SDS011;63954;51.948;5.888;2022-11-04T07:14:09;10.98;;;3.13;;
75367;SDS011;63954;51.948;5.888;2022-11-04T07:16:37;7.50;;;4.13;;
75367;SDS011;63954;51.948;5.888;2022-11-04T07:19:04;7.50;;;3.92;;
75367;SDS011;63954;51.948;5.888;2022-11-04T07:21:32;6.97;;;3.67;;
75367;SDS011;63954;51.948;5.888;2022-11-04T07:24:00;8.25;;;4.07;;
75367;SDS011;63954;51.948;5.888;2022-11-04T07:26:28;7.40;;;2.70;;
75367;SDS011;63954;51.948;5.888;2022-11-04T07:28:55;5.35;;;2.20;;
75367;SDS011;63954;51.948;5.888;2022-11-04T07:31:22;7.47;;;2.20;;
75367;SDS011;63954;51.948;5.888;2022-11-04T07:33:50;5.78;;;2.03;;
75367;SDS011;63954;51.948;5.888;2022-11-04T07:36:17;8.38;;;2.13;;
75367;SDS011;63954;51.948;5.888;2022-11-04T07:38:45;4.80;;;1.63;;
75367;SDS011;63954;51.948;5.888;2022-11-04T07:41:14;5.90;;;1.98;;
75367;SDS011;63954;51.948;5.888;2022-11-04T07:43:46;9.02;;;3.70;;
75367;SDS011;63954;51.948;5.888;2022-11-04T07:46:17;10.13;;;3.30;;
75367;SDS011;63954;51.948;5.888;2022-11-04T07:48:45;12.35;;;3.55;;
75367;SDS011;63954;51.948;5.888;2022-11-04T07:51:14;8.02;;;2.78;;
75367;SDS011;63954;51.948;5.888;2022-11-04T07:53:46;11.35;;;5.07;;
75367;SDS011;63954;51.948;5.888;2022-11-04T07:56:15;6.88;;;2.65;;
75367;SDS011;63954;51.948;5.888;2022-11-04T07:58:46;5.15;;;2.08;;
75367;SDS011;63954;51.948;5.888;2022-11-04T08:01:14;6.95;;;2.00;;
75367;SDS011;63954;51.948;5.888;2022-11-04T08:03:51;6.72;;;2.45;;
75367;SDS011;63954;51.948;5.888;2022-11-04T08:06:19;3.72;;;0.90;;
75367;SDS011;63954;51.948;5.888;2022-11-04T08:08:46;8.27;;;3.35;;
75367;SDS011;63954;51.948;5.888;2022-11-04T08:11:16;13.20;;;4.43;;
75367;SDS011;63954;51.948;5.888;2022-11-04T08:13:45;12.85;;;4.13;;
75367;SDS011;63954;51.948;5.888;2022-11-04T08:16:14;5.55;;;2.17;;
75367;SDS011;63954;51.948;5.888;2022-11-04T08:18:42;12.43;;;4.30;;
75367;SDS011;63954;51.948;5.888;2022-11-04T08:21:10;7.07;;;2.65;;
75367;SDS011;63954;51.948;5.888;2022-11-04T08:23:38;10.45;;;4.93;;
75367;SDS011;63954;51.948;5.888;2022-11-04T08:26:06;12.70;;;5.72;;
75367;SDS011;63954;51.948;5.888;2022-11-04T08:28:35;9.52;;;4.05;;
75367;SDS011;63954;51.948;5.888;2022-11-04T08:31:04;6.22;;;2.15;;
75367;SDS011;63954;51.948;5.888;2022-11-04T08:33:33;7.35;;;3.92;;
75367;SDS011;63954;51.948;5.888;2022-11-04T08:36:05;10.50;;;4.18;;
75367;SDS011;63954;51.948;5.888;2022-11-04T08:38:34;10.40;;;4.40;;
75367;SDS011;63954;51.948;5.888;2022-11-04T08:41:03;9.13;;;4.25;;
75367;SDS011;63954;51.948;5.888;2022-11-04T08:43:31;10.57;;;6.07;;
75367;SDS011;63954;51.948;5.888;2022-11-04T08:46:01;14.68;;;6.00;;
75367;SDS011;63954;51.948;5.888;2022-11-04T08:48:30;13.02;;;3.80;;
75367;SDS011;63954;51.948;5.888;2022-11-04T08:50:58;12.23;;;5.55;;
75367;SDS011;63954;51.948;5.888;2022-11-04T08:53:25;14.73;;;5.95;;
75367;SDS011;63954;51.948;5.888;2022-11-04T08:55:53;14.00;;;4.63;;
75367;SDS011;63954;51.948;5.888;2022-11-04T08:58:21;11.65;;;5.60;;
75367;SDS011;63954;51.948;5.888;2022-11-04T09:00:49;12.50;;;4.75;;
75367;SDS011;63954;51.948;5.888;2022-11-04T09:03:18;7.47;;;2.80;;
75367;SDS011;63954;51.948;5.888;2022-11-04T09:05:45;12.52;;;3.88;;
75367;SDS011;63954;51.948;5.888;2022-11-04T09:08:14;11.65;;;4.88;;
75367;SDS011;63954;51.948;5.888;2022-11-04T09:10:45;9.27;;;3.17;;
75367;SDS011;63954;51.948;5.888;2022-11-04T09:13:27;15.18;;;4.75;;
75367;SDS011;63954;51.948;5.888;2022-11-04T09:15:54;11.05;;;3.75;;
75367;SDS011;63954;51.948;5.888;2022-11-04T09:18:23;10.40;;;4.05;;
75367;SDS011;63954;51.948;5.888;2022-11-04T09:20:50;8.23;;;3.35;;
75367;SDS011;63954;51.948;5.888;2022-11-04T09:23:17;13.45;;;5.28;;
75367;SDS011;63954;51.948;5.888;2022-11-04T09:25:44;12.02;;;4.53;;
75367;SDS011;63954;51.948;5.888;2022-11-04T09:28:12;14.18;;;5.40;;
75367;SDS011;63954;51.948;5.888;2022-11-04T09:30:39;9.52;;;4.68;;
75367;SDS011;63954;51.948;5.888;2022-11-04T09:33:06;15.30;;;5.35;;
75367;SDS011;63954;51.948;5.888;2022-11-04T09:35:34;10.43;;;3.58;;
75367;SDS011;63954;51.948;5.888;2022-11-04T09:38:02;9.77;;;4.68;;
75367;SDS011;63954;51.948;5.888;2022-11-04T09:40:31;9.57;;;4.10;;
75367;SDS011;63954;51.948;5.888;2022-11-04T09:43:11;8.93;;;3.80;;
75367;SDS011;63954;51.948;5.888;2022-11-04T09:45:49;7.40;;;2.13;;
75367;SDS011;63954;51.948;5.888;2022-11-04T09:48:18;8.98;;;3.75;;
75367;SDS011;63954;51.948;5.888;2022-11-04T09:50:54;10.38;;;3.72;;
75367;SDS011;63954;51.948;5.888;2022-11-04T09:53:25;7.20;;;3.53;;
75367;SDS011;63954;51.948;5.888;2022-11-04T09:55:56;9.82;;;3.95;;
75367;SDS011;63954;51.948;5.888;2022-11-04T09:58:32;11.25;;;5.13;;
75367;SDS011;63954;51.948;5.888;2022-11-04T10:01:12;12.63;;;4.50;;
75367;SDS011;63954;51.948;5.888;2022-11-04T10:03:51;9.45;;;4.43;;
75367;SDS011;63954;51.948;5.888;2022-11-04T10:06:37;9.45;;;3.75;;
75367;SDS011;63954;51.948;5.888;2022-11-04T10:09:24;9.80;;;3.55;;
75367;SDS011;63954;51.948;5.888;2022-11-04T10:12:09;7.50;;;3.33;;
75367;SDS011;63954;51.948;5.888;2022-11-04T10:14:50;10.70;;;3.72;;
75367;SDS011;63954;51.948;5.888;2022-11-04T10:17:30;11.55;;;4.55;;
75367;SDS011;63954;51.948;5.888;2022-11-04T10:20:11;11.38;;;3.88;;
75367;SDS011;63954;51.948;5.888;2022-11-04T10:22:51;6.60;;;2.70;;
75367;SDS011;63954;51.948;5.888;2022-11-04T10:25:24;6.72;;;3.92;;
75367;SDS011;63954;51.948;5.888;2022-11-04T10:27:59;9.88;;;5.03;;
75367;SDS011;63954;51.948;5.888;2022-11-04T10:30:28;12.60;;;6.50;;
75367;SDS011;63954;51.948;5.888;2022-11-04T10:32:58;7.70;;;3.90;;
75367;SDS011;63954;51.948;5.888;2022-11-04T10:35:31;9.52;;;3.55;;
75367;SDS011;63954;51.948;5.888;2022-11-04T10:38:14;15.15;;;7.32;;
75367;SDS011;63954;51.948;5.888;2022-11-04T10:40:45;8.18;;;3.53;;
75367;SDS011;63954;51.948;5.888;2022-11-04T10:43:15;7.82;;;4.13;;
75367;SDS011;63954;51.948;5.888;2022-11-04T10:45:49;7.07;;;3.60;;
75367;SDS011;63954;51.948;5.888;2022-11-04T10:48:35;10.45;;;5.75;;
75367;SDS011;63954;51.948;5.888;2022-11-04T10:51:09;12.20;;;6.03;;
75367;SDS011;63954;51.948;5.888;2022-11-04T10:53:37;14.07;;;7.75;;
75367;SDS011;63954;51.948;5.888;2022-11-04T10:56:05;14.60;;;8.45;;
75367;SDS011;63954;51.948;5.888;2022-11-04T10:58:40;13.98;;;8.45;;
75367;SDS011;63954;51.948;5.888;2022-11-04T11:01:23;9.85;;;5.35;;
75367;SDS011;63954;51.948;5.888;2022-11-04T11:03:53;15.02;;;6.45;;
75367;SDS011;63954;51.948;5.888;2022-11-04T11:06:23;13.13;;;7.97;;
75367;SDS011;63954;51.948;5.888;2022-11-04T11:08:56;13.82;;;5.75;;
75367;SDS011;63954;51.948;5.888;2022-11-04T11:11:35;14.00;;;6.90;;
75367;SDS011;63954;51.948;5.888;2022-11-04T11:14:03;13.63;;;7.03;;
75367;SDS011;63954;51.948;5.888;2022-11-04T11:16:31;18.25;;;9.70;;
75367;SDS011;63954;51.948;5.888;2022-11-04T11:19:07;17.40;;;9.73;;
75367;SDS011;63954;51.948;5.888;2022-11-04T11:21:41;10.02;;;6.00;;
75367;SDS011;63954;51.948;5.888;2022-11-04T11:24:15;10.73;;;5.40;;
75367;SDS011;63954;51.948;5.888;2022-11-04T11:26:48;14.20;;;9.23;;
75367;SDS011;63954;51.948;5.888;2022-11-04T11:29:18;14.38;;;9.38;;
75367;SDS011;63954;51.948;5.888;2022-11-04T11:31:49;14.00;;;7.95;;
75367;SDS011;63954;51.948;5.888;2022-11-04T11:34:18;13.75;;;8.10;;
75367;SDS011;63954;51.948;5.888;2022-11-04T11:36:48;13.05;;;8.57;;
75367;SDS011;63954;51.948;5.888;2022-11-04T11:39:18;14.45;;;7.65;;
75367;SDS011;63954;51.948;5.888;2022-11-04T11:41:49;9.57;;;6.57;;
75367;SDS011;63954;51.948;5.888;2022-11-04T11:44:20;6.47;;;4.93;;
75367;SDS011;63954;51.948;5.888;2022-11-04T11:46:52;12.98;;;7.22;;
75367;SDS011;63954;51.948;5.888;2022-11-04T11:49:24;12.77;;;8.18;;
75367;SDS011;63954;51.948;5.888;2022-11-04T11:51:53;7.70;;;5.60;;
75367;SDS011;63954;51.948;5.888;2022-11-04T11:54:24;16.00;;;8.48;;
75367;SDS011;63954;51.948;5.888;2022-11-04T11:56:58;11.98;;;7.43;;
75367;SDS011;63954;51.948;5.888;2022-11-04T11:59:30;8.77;;;4.30;;
75367;SDS011;63954;51.948;5.888;2022-11-04T12:02:15;14.15;;;7.93;;
75367;SDS011;63954;51.948;5.888;2022-11-04T12:04:49;13.18;;;7.15;;
75367;SDS011;63954;51.948;5.888;2022-11-04T12:07:21;11.02;;;6.07;;
75367;SDS011;63954;51.948;5.888;2022-11-04T12:09:59;10.82;;;6.03;;
75367;SDS011;63954;51.948;5.888;2022-11-04T12:12:39;12.45;;;8.10;;
75367;SDS011;63954;51.948;5.888;2022-11-04T12:15:33;11.00;;;5.13;;
75367;SDS011;63954;51.948;5.888;2022-11-04T12:21:12;11.48;;;7.57;;
75367;SDS011;63954;51.948;5.888;2022-11-04T12:23:45;10.57;;;7.68;;
75367;SDS011;63954;51.948;5.888;2022-11-04T12:26:23;14.60;;;9.70;;
75367;SDS011;63954;51.948;5.888;2022-11-04T12:28:58;17.67;;;9.73;;
75367;SDS011;63954;51.948;5.888;2022-11-04T12:31:37;13.63;;;9.15;;
75367;SDS011;63954;51.948;5.888;2022-11-04T12:34:13;15.73;;;11.82;;
75367;SDS011;63954;51.948;5.888;2022-11-04T12:36:54;10.43;;;7.05;;
75367;SDS011;63954;51.948;5.888;2022-11-04T12:39:37;17.83;;;11.65;;
75367;SDS011;63954;51.948;5.888;2022-11-04T12:42:17;17.52;;;8.00;;
75367;SDS011;63954;51.948;5.888;2022-11-04T12:44:52;10.70;;;6.55;;
75367;SDS011;63954;51.948;5.888;2022-11-04T12:47:31;7.20;;;5.32;;
75367;SDS011;63954;51.948;5.888;2022-11-04T12:50:03;9.90;;;5.63;;
75367;SDS011;63954;51.948;5.888;2022-11-04T12:52:44;12.93;;;8.27;;
75367;SDS011;63954;51.948;5.888;2022-11-04T12:55:28;14.93;;;8.98;;
75367;SDS011;63954;51.948;5.888;2022-11-04T12:58:09;13.77;;;8.80;;
75367;SDS011;63954;51.948;5.888;2022-11-04T13:00:47;19.20;;;10.68;;
75367;SDS011;63954;51.948;5.888;2022-11-04T13:03:22;9.93;;;4.72;;
75367;SDS011;63954;51.948;5.888;2022-11-04T13:05:57;10.57;;;5.70;;
75367;SDS011;63954;51.948;5.888;2022-11-04T13:08:32;7.55;;;4.93;;
75367;SDS011;63954;51.948;5.888;2022-11-04T13:11:06;12.80;;;8.80;;
75367;SDS011;63954;51.948;5.888;2022-11-04T13:13:50;10.40;;;7.03;;
75367;SDS011;63954;51.948;5.888;2022-11-04T13:16:25;10.13;;;5.78;;
75367;SDS011;63954;51.948;5.888;2022-11-04T13:18:54;11.73;;;7.72;;
75367;SDS011;63954;51.948;5.888;2022-11-04T13:21:22;9.15;;;5.00;;
75367;SDS011;63954;51.948;5.888;2022-11-04T13:23:54;8.32;;;5.85;;
75367;SDS011;63954;51.948;5.888;2022-11-04T13:26:25;20.83;;;11.70;;
75367;SDS011;63954;51.948;5.888;2022-11-04T13:28:55;19.48;;;11.23;;
75367;SDS011;63954;51.948;5.888;2022-11-04T13:31:31;13.65;;;8.40;;
75367;SDS011;63954;51.948;5.888;2022-11-04T13:34:07;17.15;;;11.27;;
75367;SDS011;63954;51.948;5.888;2022-11-04T13:36:42;19.20;;;11.20;;
75367;SDS011;63954;51.948;5.888;2022-11-04T13:39:14;17.17;;;11.05;;
75367;SDS011;63954;51.948;5.888;2022-11-04T13:44:51;13.63;;;6.15;;
75367;SDS011;63954;51.948;5.888;2022-11-04T13:47:22;13.00;;;9.50;;
75367;SDS011;63954;51.948;5.888;2022-11-04T13:49:53;17.45;;;10.07;;
75367;SDS011;63954;51.948;5.888;2022-11-04T13:52:21;13.48;;;6.32;;
75367;SDS011;63954;51.948;5.888;2022-11-04T13:54:53;14.48;;;9.98;;
75367;SDS011;63954;51.948;5.888;2022-11-04T13:57:23;21.00;;;11.02;;
75367;SDS011;63954;51.948;5.888;2022-11-04T14:00:19;17.17;;;8.98;;
75367;SDS011;63954;51.948;5.888;2022-11-04T14:02:49;16.77;;;8.88;;
75367;SDS011;63954;51.948;5.888;2022-11-04T14:08:32;12.90;;;7.82;;
75367;SDS011;63954;51.948;5.888;2022-11-04T14:11:07;12.73;;;8.82;;
75367;SDS011;63954;51.948;5.888;2022-11-04T14:16:40;14.27;;;7.57;;
75367;SDS011;63954;51.948;5.888;2022-11-04T14:22:22;11.70;;;7.40;;
75367;SDS011;63954;51.948;5.888;2022-11-04T14:24:59;11.63;;;7.65;;
75367;SDS011;63954;51.948;5.888;2022-11-04T14:27:30;14.98;;;8.15;;
75367;SDS011;63954;51.948;5.888;2022-11-04T14:30:04;14.57;;;7.82;;
75367;SDS011;63954;51.948;5.888;2022-11-04T14:32:35;13.20;;;7.18;;
75367;SDS011;63954;51.948;5.888;2022-11-04T14:35:06;11.07;;;5.88;;
75367;SDS011;63954;51.948;5.888;2022-11-04T14:37:58;11.15;;;6.70;;
75367;SDS011;63954;51.948;5.888;2022-11-04T14:40:48;15.13;;;8.98;;
75367;SDS011;63954;51.948;5.888;2022-11-04T14:43:18;14.68;;;9.90;;
75367;SDS011;63954;51.948;5.888;2022-11-04T14:45:56;9.55;;;5.53;;
75367;SDS011;63954;51.948;5.888;2022-11-04T14:48:27;16.45;;;10.75;;
75367;SDS011;63954;51.948;5.888;2022-11-04T14:50:56;17.73;;;10.98;;
75367;SDS011;63954;51.948;5.888;2022-11-04T14:53:25;19.85;;;11.00;;
75367;SDS011;63954;51.948;5.888;2022-11-04T14:56:04;10.25;;;6.35;;
75367;SDS011;63954;51.948;5.888;2022-11-04T14:58:38;14.65;;;6.75;;
75367;SDS011;63954;51.948;5.888;2022-11-04T15:01:16;10.07;;;5.28;;
75367;SDS011;63954;51.948;5.888;2022-11-04T15:03:49;6.80;;;4.13;;
75367;SDS011;63954;51.948;5.888;2022-11-04T15:06:22;7.50;;;3.58;;
75367;SDS011;63954;51.948;5.888;2022-11-04T15:08:51;5.47;;;1.20;;
75367;SDS011;63954;51.948;5.888;2022-11-04T15:11:21;3.10;;;1.20;;
75367;SDS011;63954;51.948;5.888;2022-11-04T15:14:09;4.95;;;1.23;;
75367;SDS011;63954;51.948;5.888;2022-11-04T15:16:43;2.75;;;1.08;;
75367;SDS011;63954;51.948;5.888;2022-11-04T15:19:13;3.25;;;0.65;;
75367;SDS011;63954;51.948;5.888;2022-11-04T15:21:47;3.13;;;1.20;;
75367;SDS011;63954;51.948;5.888;2022-11-04T15:24:15;2.22;;;0.85;;
75367;SDS011;63954;51.948;5.888;2022-11-04T15:26:43;2.25;;;0.95;;
75367;SDS011;63954;51.948;5.888;2022-11-04T15:29:19;3.60;;;0.30;;
75367;SDS011;63954;51.948;5.888;2022-11-04T15:31:52;3.30;;;1.27;;